Time;durP1;ratioP1;P1;durP2;ratioP2;P2;SDS_P1;SDS_P2;PMS_P1;PMS_P2;Temp;Humidity;BMP_temperature;BMP_pressure;BME280_temperature;BME280_humidity;BME280_pressure;Samples;Min_cycle;Max_cycle;Signal;HPM_P1;HPM_P2
2021/10/14 00:01:35;;;;;;;4.27;3.97;;;;;;;3.07;97.27;96524.09;5028411;28;20486;-68
2021/10/14 00:04:05;;;;;;;2.93;2.73;;;;;;;2.92;96.81;96520.84;5018151;28;20220;-68
2021/10/14 00:06:33;;;;;;;3.13;2.93;;;;;;;2.82;96.81;96527.69;5021977;28;20685;-68
2021/10/14 00:09:01;;;;;;;3.60;3.30;;;;;;;2.76;97.56;96520.38;5021123;28;20713;-69
2021/10/14 00:11:29;;;;;;;3.27;3.07;;;;;;;2.70;97.12;96533.84;5040971;28;20223;-67
2021/10/14 00:13:58;;;;;;;3.63;3.33;;;;;;;2.63;96.19;96535.22;5021610;28;20263;-68
2021/10/14 00:16:25;;;;;;;2.63;2.43;;;;;;;2.51;96.84;96527.38;5019435;28;20319;-69
2021/10/14 00:18:54;;;;;;;3.30;3.10;;;;;;;2.39;96.20;96533.50;5022876;28;20246;-69
2021/10/14 00:21:23;;;;;;;3.50;3.20;;;;;;;2.29;95.90;96527.31;5024681;28;20305;-68
2021/10/14 00:23:52;;;;;;;3.33;3.13;;;;;;;2.24;95.88;96526.78;5023434;28;20241;-68
2021/10/14 00:26:20;;;;;;;3.77;3.37;;;;;;;2.22;96.40;96526.09;5025750;28;20247;-69
2021/10/14 00:28:48;;;;;;;3.43;3.00;;;;;;;2.16;96.62;96524.75;5021715;28;20572;-68
2021/10/14 00:31:16;;;;;;;3.37;3.17;;;;;;;2.11;96.61;96528.63;5025556;28;20664;-69
2021/10/14 00:33:44;;;;;;;2.30;2.20;;;;;;;2.12;97.05;96530.28;5022398;28;20620;-69
2021/10/14 00:36:12;;;;;;;2.80;2.60;;;;;;;2.08;97.03;96534.03;5024009;28;20717;-69
2021/10/14 00:38:42;;;;;;;3.47;3.27;;;;;;;1.99;97.35;96520.75;5025239;28;20266;-68
2021/10/14 00:41:09;;;;;;;3.83;2.73;;;;;;;1.93;97.65;96518.59;5023777;28;20293;-68
2021/10/14 00:43:37;;;;;;;4.70;3.43;;;;;;;1.87;96.99;96520.81;5023328;28;20289;-69
2021/10/14 00:46:06;;;;;;;3.37;3.17;;;;;;;1.85;98.01;96513.09;5013776;28;20255;-69
2021/10/14 00:48:34;;;;;;;3.23;3.03;;;;;;;1.83;98.50;96515.00;5020653;28;20734;-69
2021/10/14 00:51:02;;;;;;;4.77;4.47;;;;;;;1.80;98.60;96520.41;5021089;28;20772;-67
2021/10/14 00:53:30;;;;;;;4.93;4.53;;;;;;;1.81;98.52;96522.06;5024457;28;20219;-68
2021/10/14 00:56:00;;;;;;;3.63;3.33;;;;;;;1.73;98.85;96526.97;5017492;28;20248;-68
2021/10/14 00:58:28;;;;;;;4.30;3.87;;;;;;;1.74;99.19;96531.25;5026172;28;20585;-68
2021/10/14 01:00:56;;;;;;;3.63;3.40;;;;;;;1.81;98.64;96532.47;5023186;28;20505;-69
2021/10/14 01:03:25;;;;;;;4.20;3.87;;;;;;;1.77;99.00;96536.25;5016157;28;20219;-68
2021/10/14 01:05:53;;;;;;;3.80;3.50;;;;;;;1.76;98.83;96529.38;5025282;28;20298;-68
2021/10/14 01:08:21;;;;;;;3.27;3.07;;;;;;;1.74;98.36;96526.06;5015585;28;20232;-69
2021/10/14 01:10:49;;;;;;;4.63;4.23;;;;;;;1.68;98.70;96526.47;5024040;28;20310;-68
2021/10/14 01:13:19;;;;;;;4.03;3.57;;;;;;;1.61;98.95;96531.28;5023307;28;20705;-68
2021/10/14 01:15:48;;;;;;;4.23;3.60;;;;;;;1.59;98.97;96527.13;5024624;28;20852;-69
2021/10/14 01:18:17;;;;;;;3.77;3.47;;;;;;;1.60;98.38;96526.19;5021390;28;20693;-69
2021/10/14 01:20:46;;;;;;;4.20;3.90;;;;;;;1.48;97.91;96534.84;5020014;28;20330;-68
2021/10/14 01:23:14;;;;;;;12.17;4.67;;;;;;;1.47;98.75;96535.78;5024535;28;20649;-69
2021/10/14 01:25:46;;;;;;;4.60;4.20;;;;;;;1.44;98.46;96526.41;5024592;28;20739;-69
2021/10/14 01:28:15;;;;;;;4.63;4.23;;;;;;;1.40;99.16;96528.41;5024831;28;20638;-69
2021/10/14 01:30:43;;;;;;;4.07;3.77;;;;;;;1.41;99.01;96522.25;5023359;28;20230;-67
2021/10/14 01:33:30;;;;;;;3.13;2.93;;;;;;;1.46;98.53;96505.50;5017748;28;20229;-68
2021/10/14 01:36:00;;;;;;;3.70;3.50;;;;;;;1.50;98.94;96504.34;5021208;28;20680;-68
2021/10/14 01:38:28;;;;;;;4.17;3.87;;;;;;;1.49;98.72;96497.50;5024492;28;20235;-69
2021/10/14 01:40:56;;;;;;;4.33;3.83;;;;;;;1.46;98.88;96500.28;5023834;28;20639;-69
2021/10/14 01:43:25;;;;;;;4.20;3.87;;;;;;;1.47;99.20;96497.63;5023377;28;20748;-69
2021/10/14 01:45:53;;;;;;;4.77;4.33;;;;;;;1.51;99.11;96498.22;5036296;28;20243;-68
2021/10/14 01:48:22;;;;;;;3.87;3.57;;;;;;;1.50;99.16;96502.59;5018613;28;20215;-69
2021/10/14 01:50:51;;;;;;;5.13;4.73;;;;;;;1.46;99.42;96506.31;5020445;28;20732;-69
2021/10/14 01:53:20;;;;;;;5.40;4.90;;;;;;;1.49;100.00;96511.34;5021837;28;20224;-69
2021/10/14 01:55:48;;;;;;;5.13;4.73;;;;;;;1.52;100.00;96518.09;5022431;28;20237;-68
2021/10/14 01:58:18;;;;;;;4.83;4.53;;;;;;;1.53;100.00;96511.94;5015387;28;20715;-69
2021/10/14 02:00:47;;;;;;;4.07;3.80;;;;;;;1.54;100.00;96524.00;5020612;28;20223;-69
2021/10/14 02:03:15;;;;;;;4.47;4.17;;;;;;;1.52;99.45;96525.88;5019681;28;20231;-69
2021/10/14 02:05:44;;;;;;;5.40;5.00;;;;;;;1.46;99.64;96515.91;5024522;28;20712;-69
2021/10/14 02:08:12;;;;;;;4.73;4.43;;;;;;;1.42;99.17;96520.50;5023310;28;20231;-69
2021/10/14 02:10:42;;;;;;;3.33;3.13;;;;;;;1.38;99.73;96524.25;5025254;28;20251;-68
2021/10/14 02:13:10;;;;;;;3.73;3.53;;;;;;;1.38;99.09;96519.88;5022401;28;20277;-69
2021/10/14 02:15:39;;;;;;;5.03;4.67;;;;;;;1.38;99.37;96530.28;5019836;28;20696;-69
2021/10/14 02:18:06;;;;;;;4.00;3.80;;;;;;;1.40;99.30;96527.56;5022987;28;20251;-69
2021/10/14 02:20:34;;;;;;;5.13;4.73;;;;;;;1.34;98.91;96530.59;5039732;28;20310;-68
2021/10/14 02:23:03;;;;;;;4.47;3.77;;;;;;;1.31;98.90;96536.00;5022068;28;20235;-68
2021/10/14 02:25:31;;;;;;;6.00;5.53;;;;;;;1.27;98.84;96532.78;5016687;28;20249;-68
2021/10/14 02:28:00;;;;;;;4.17;3.87;;;;;;;1.22;98.41;96527.06;5023807;28;20289;-68
2021/10/14 02:30:28;;;;;;;5.00;4.33;;;;;;;1.21;98.27;96525.41;5017085;28;20224;-69
2021/10/14 02:32:56;;;;;;;4.93;4.53;;;;;;;1.14;98.62;96518.97;5019610;28;20574;-68
2021/10/14 02:35:24;;;;;;;4.17;3.87;;;;;;;1.15;98.82;96505.03;5021915;28;20509;-68
2021/10/14 02:37:53;;;;;;;4.30;3.90;;;;;;;1.18;98.58;96496.19;5021066;28;20254;-69
2021/10/14 02:40:21;;;;;;;9.43;8.47;;;;;;;1.44;99.68;96482.19;5023723;28;20227;-68
2021/10/14 02:42:49;;;;;;;8.97;6.57;;;;;;;1.69;100.00;96487.34;5023855;28;20703;-68
2021/10/14 02:45:18;;;;;;;6.40;5.80;;;;;;;1.75;100.00;96486.09;5017801;28;20310;-68
2021/10/14 02:47:46;;;;;;;8.30;6.63;;;;;;;1.67;100.00;96478.00;5024193;28;20285;-68
2021/10/14 02:50:14;;;;;;;6.07;5.57;;;;;;;1.59;100.00;96477.69;5023029;28;20742;-68
2021/10/14 02:52:42;;;;;;;9.23;7.83;;;;;;;1.49;100.00;96489.69;5020960;28;20771;-69
2021/10/14 02:55:10;;;;;;;7.60;7.00;;;;;;;1.44;100.00;96508.22;5024307;28;20637;-68
2021/10/14 02:57:38;;;;;;;7.33;6.63;;;;;;;1.45;100.00;96509.88;5022496;28;20361;-68
2021/10/14 03:00:08;;;;;;;7.50;6.90;;;;;;;1.37;100.00;96500.03;5024062;28;20220;-69
2021/10/14 03:02:37;;;;;;;5.13;4.73;;;;;;;1.32;100.00;96493.47;5017160;28;20314;-69
2021/10/14 03:05:06;;;;;;;5.50;4.83;;;;;;;1.27;99.86;96496.38;5023747;28;20220;-68
2021/10/14 03:07:35;;;;;;;6.97;6.30;;;;;;;1.10;100.00;96507.13;5037003;28;20224;-68
2021/10/14 03:10:07;;;;;;;5.63;5.03;;;;;;;1.15;99.89;96497.22;5023665;28;20220;-68
2021/10/14 03:12:36;;;;;;;6.63;6.13;;;;;;;1.25;99.48;96490.47;5021786;28;20224;-68
2021/10/14 03:15:05;;;;;;;6.50;5.97;;;;;;;1.08;99.51;96486.41;5023321;28;20655;-68
2021/10/14 03:17:33;;;;;;;6.87;6.27;;;;;;;1.07;100.00;96499.53;5037235;28;20227;-68
2021/10/14 03:20:03;;;;;;;7.03;6.20;;;;;;;1.11;100.00;96501.00;5023989;28;20508;-68
2021/10/14 03:22:31;;;;;;;8.47;7.77;;;;;;;1.16;100.00;96504.09;5020426;28;20765;-68
2021/10/14 03:24:59;;;;;;;8.53;7.80;;;;;;;1.24;100.00;96517.41;5020640;28;20724;-69
2021/10/14 03:27:28;;;;;;;9.47;8.57;;;;;;;1.32;100.00;96509.91;5021336;28;20254;-68
2021/10/14 03:29:56;;;;;;;7.27;6.67;;;;;;;1.39;100.00;96516.34;5022086;28;20219;-68
2021/10/14 03:32:24;;;;;;;9.30;7.10;;;;;;;1.48;100.00;96519.25;5020001;28;20359;-69
2021/10/14 03:34:52;;;;;;;7.07;6.47;;;;;;;1.53;100.00;96517.13;5021115;28;20282;-67
2021/10/14 03:37:21;;;;;;;7.53;6.80;;;;;;;1.60;100.00;96513.19;5018181;28;20256;-67
2021/10/14 03:39:49;;;;;;;6.93;6.33;;;;;;;1.53;100.00;96517.13;5028553;28;20222;-68
2021/10/14 03:42:19;;;;;;;7.40;6.63;;;;;;;1.40;100.00;96527.56;5025773;28;20214;-68
2021/10/14 03:44:47;;;;;;;7.80;7.10;;;;;;;1.41;100.00;96531.84;5026722;28;20281;-67
2021/10/14 03:47:15;;;;;;;8.23;7.53;;;;;;;1.42;100.00;96531.72;5009124;28;20224;-68
2021/10/14 03:49:43;;;;;;;8.80;7.03;;;;;;;1.42;100.00;96531.72;5025534;28;20223;-68
2021/10/14 03:52:11;;;;;;;8.27;7.57;;;;;;;1.37;100.00;96538.16;5040593;28;20235;-68
2021/10/14 03:54:40;;;;;;;8.27;7.57;;;;;;;1.31;100.00;96534.25;5023971;28;20238;-68
2021/10/14 03:57:08;;;;;;;7.00;6.40;;;;;;;1.39;100.00;96536.31;5023697;28;20323;-68
2021/10/14 03:59:36;;;;;;;7.20;6.50;;;;;;;1.40;100.00;96533.59;5023790;28;20452;-68
2021/10/14 04:02:05;;;;;;;6.80;6.27;;;;;;;1.45;100.00;96524.63;5011364;28;20226;-67
2021/10/14 04:04:34;;;;;;;7.63;7.03;;;;;;;1.43;100.00;96522.97;5026760;28;20282;-68
2021/10/14 04:07:02;;;;;;;8.00;7.20;;;;;;;1.41;100.00;96519.66;5023303;28;20258;-69
2021/10/14 04:09:30;;;;;;;6.67;5.93;;;;;;;1.41;100.00;96519.66;5022579;28;20722;-69
2021/10/14 04:11:59;;;;;;;10.13;8.00;;;;;;;1.56;100.00;96509.13;5017078;28;20226;-68
2021/10/14 04:14:29;;;;;;;8.07;7.27;;;;;;;1.58;100.00;96504.66;5023897;28;20281;-68
2021/10/14 04:16:57;;;;;;;8.93;8.20;;;;;;;1.59;100.00;96511.50;5025187;28;20306;-68
2021/10/14 04:19:26;;;;;;;7.93;7.17;;;;;;;1.59;100.00;96503.72;5019161;28;20255;-68
2021/10/14 04:21:54;;;;;;;7.17;6.47;;;;;;;1.62;100.00;96506.91;5025057;28;20606;-68
2021/10/14 04:24:22;;;;;;;7.80;7.00;;;;;;;1.58;100.00;96504.66;5025830;28;20220;-68
2021/10/14 04:26:51;;;;;;;7.17;6.57;;;;;;;1.56;100.00;96514.34;5040191;28;20233;-68
2021/10/14 04:29:20;;;;;;;6.57;5.90;;;;;;;1.57;100.00;96508.19;5024408;28;20225;-69
2021/10/14 04:31:48;;;;;;;7.33;6.83;;;;;;;1.56;100.00;96509.13;5014068;28;20279;-68
2021/10/14 04:34:17;;;;;;;10.13;7.67;;;;;;;1.47;100.00;96512.38;5016661;28;20689;-68
2021/10/14 04:36:45;;;;;;;7.43;6.83;;;;;;;1.43;100.00;96517.78;5024137;28;20251;-68
2021/10/14 04:39:13;;;;;;;7.13;6.43;;;;;;;1.38;100.00;96525.09;5038923;28;20306;-68
2021/10/14 04:41:42;;;;;;;8.20;7.50;;;;;;;1.39;100.00;96521.53;5020094;28;20236;-69
2021/10/14 04:44:09;;;;;;;5.67;5.27;;;;;;;1.47;100.00;96512.38;5021248;28;20707;-68
2021/10/14 04:46:39;;;;;;;8.43;7.73;;;;;;;1.51;100.00;96508.63;5018050;28;20787;-68
2021/10/14 04:49:07;;;;;;;9.13;8.27;;;;;;;1.55;100.00;96512.66;5014996;28;20223;-67
2021/10/14 04:51:35;;;;;;;7.97;7.37;;;;;;;1.64;100.00;96514.59;5040368;28;20219;-68
2021/10/14 04:54:03;;;;;;;9.60;6.93;;;;;;;1.64;100.00;96520.63;5022664;28;20311;-67
2021/10/14 04:56:31;;;;;;;9.80;8.97;;;;;;;1.65;100.00;96522.34;5033557;28;20226;-68
2021/10/14 04:58:59;;;;;;;10.00;9.00;;;;;;;1.74;100.00;96520.00;5023678;28;20314;-68
2021/10/14 05:01:27;;;;;;;9.60;7.57;;;;;;;1.71;100.00;96515.84;5022932;28;20314;-68
2021/10/14 05:03:56;;;;;;;9.27;8.27;;;;;;;1.67;100.00;96524.81;5022441;28;20303;-67
2021/10/14 05:06:24;;;;;;;10.80;7.50;;;;;;;1.68;100.00;96516.06;5021707;28;20382;-68
2021/10/14 05:08:52;;;;;;;8.53;7.83;;;;;;;1.69;100.00;96521.16;5022962;28;20564;-68
2021/10/14 05:11:20;;;;;;;7.33;6.70;;;;;;;1.65;100.00;96530.13;5018503;28;20867;-68
2021/10/14 05:13:48;;;;;;;10.47;7.93;;;;;;;1.68;100.00;96532.50;5014407;28;20309;-68
2021/10/14 05:16:16;;;;;;;8.80;8.00;;;;;;;1.68;100.00;96536.88;5021981;28;20303;-66
2021/10/14 05:18:44;;;;;;;10.67;8.17;;;;;;;1.74;100.00;96536.47;5026644;28;20223;-66
2021/10/14 05:21:13;;;;;;;7.77;7.27;;;;;;;1.77;100.00;96535.41;5025610;28;20243;-66
2021/10/14 05:23:42;;;;;;;9.57;8.67;;;;;;;1.83;100.00;96534.94;5025762;28;20273;-66
2021/10/14 05:26:10;;;;;;;9.60;8.67;;;;;;;1.89;100.00;96530.16;5024637;28;20224;-66
2021/10/14 05:28:38;;;;;;;9.07;8.07;;;;;;;1.95;100.00;96528.91;5026318;28;20483;-66
2021/10/14 05:31:07;;;;;;;9.50;8.50;;;;;;;1.88;100.00;96538.06;5024228;28;20247;-66
2021/10/14 05:33:37;;;;;;;7.50;6.67;;;;;;;1.89;100.00;96540.56;5025298;28;20255;-66
2021/10/14 05:36:05;;;;;;;9.90;8.97;;;;;;;1.94;100.00;96543.69;5024465;28;20470;-66
2021/10/14 05:38:35;;;;;;;8.40;7.53;;;;;;;2.02;100.00;96534.50;5019563;28;20774;-66
2021/10/14 05:41:03;;;;;;;9.90;9.03;;;;;;;2.12;100.00;96535.50;5025994;28;20512;-65
2021/10/14 05:43:31;;;;;;;11.90;8.27;;;;;;;2.21;100.00;96534.84;5041321;28;20616;-65
2021/10/14 05:45:59;;;;;;;9.90;9.00;;;;;;;2.33;100.00;96528.72;5024385;28;20692;-68
2021/10/14 05:48:27;;;;;;;10.37;8.10;;;;;;;2.48;100.00;96538.03;5024381;28;20226;-68
2021/10/14 05:50:56;;;;;;;9.77;8.97;;;;;;;2.47;100.00;96540.72;5020546;28;20302;-68
2021/10/14 05:53:24;;;;;;;11.17;9.90;;;;;;;2.61;100.00;96542.34;5018182;28;20681;-67
2021/10/14 05:55:53;;;;;;;10.13;9.23;;;;;;;2.68;100.00;96543.56;5005743;28;20316;-68
2021/10/14 05:58:21;;;;;;;7.20;6.60;;;;;;;2.74;100.00;96545.69;5009510;28;20248;-68
2021/10/14 06:00:49;;;;;;;10.70;9.63;;;;;;;2.90;99.96;96543.59;5022791;28;20246;-68
2021/10/14 06:03:18;;;;;;;9.77;8.00;;;;;;;2.97;99.35;96547.41;5025625;28;20716;-67
2021/10/14 06:05:46;;;;;;;7.17;6.57;;;;;;;2.97;99.12;96550.03;5040145;28;20243;-68
2021/10/14 06:08:14;;;;;;;8.43;7.63;;;;;;;2.99;99.42;96553.34;5024964;28;20310;-68
2021/10/14 06:10:42;;;;;;;10.00;9.00;;;;;;;3.09;99.00;96548.25;5022208;28;20220;-68
2021/10/14 06:13:12;;;;;;;9.80;7.47;;;;;;;3.13;99.34;96550.53;5024116;28;20251;-68
2021/10/14 06:15:41;;;;;;;8.67;7.97;;;;;;;3.16;98.93;96553.84;5022760;28;20228;-68
2021/10/14 06:18:09;;;;;;;17.43;9.13;;;;;;;3.23;99.17;96555.06;5024514;28;20220;-68
2021/10/14 06:20:37;;;;;;;10.03;9.10;;;;;;;3.27;98.26;96546.03;5023926;28;20251;-68
2021/10/14 06:23:06;;;;;;;7.90;7.30;;;;;;;3.30;98.18;96548.44;5026724;28;20467;-67
2021/10/14 06:25:34;;;;;;;11.77;8.47;;;;;;;3.28;97.89;96548.53;5020217;28;20262;-68
2021/10/14 06:28:03;;;;;;;12.00;8.67;;;;;;;3.28;98.27;96542.47;5030864;28;20224;-68
2021/10/14 06:30:33;;;;;;;9.80;8.80;;;;;;;3.33;98.48;96545.56;5017173;28;20223;-68
2021/10/14 06:33:01;;;;;;;8.40;7.60;;;;;;;3.37;98.45;96549.59;5024471;28;20299;-68
2021/10/14 06:35:29;;;;;;;11.87;7.83;;;;;;;3.45;98.15;96544.63;5013785;28;20786;-68
2021/10/14 06:37:58;;;;;;;6.77;6.17;;;;;;;3.51;98.42;96549.38;5019123;28;20278;-68
2021/10/14 06:40:27;;;;;;;8.07;7.37;;;;;;;3.61;98.11;96555.53;5021937;28;20266;-68
2021/10/14 06:42:55;;;;;;;7.73;6.93;;;;;;;3.64;97.96;96547.47;5023888;28;20274;-68
2021/10/14 06:45:23;;;;;;;9.20;8.30;;;;;;;3.72;97.62;96546.88;5022412;28;20689;-68
2021/10/14 06:47:53;;;;;;;8.80;6.67;;;;;;;3.80;97.91;96551.50;5024750;28;20685;-68
2021/10/14 06:50:21;;;;;;;12.83;9.53;;;;;;;3.91;97.38;96557.53;5023311;28;20257;-67
2021/10/14 06:52:49;;;;;;;8.77;7.63;;;;;;;4.04;97.25;96552.19;5024397;28;20770;-67
2021/10/14 06:55:17;;;;;;;9.87;8.87;;;;;;;4.14;97.26;96550.50;5019519;28;20712;-68
2021/10/14 06:57:45;;;;;;;11.87;9.20;;;;;;;4.22;97.02;96550.72;5023867;28;20245;-67
2021/10/14 07:00:14;;;;;;;8.03;7.43;;;;;;;4.29;96.64;96541.41;5024300;28;20227;-68
2021/10/14 07:02:42;;;;;;;7.27;6.60;;;;;;;4.35;96.50;96550.56;5024809;28;20302;-68
2021/10/14 07:05:11;;;;;;;8.60;7.70;;;;;;;4.43;96.54;96548.16;5020455;28;20307;-68
2021/10/14 07:07:39;;;;;;;9.43;8.57;;;;;;;4.51;96.57;96550.16;5015998;28;20365;-68
2021/10/14 07:10:09;;;;;;;8.40;7.53;;;;;;;4.66;96.20;96554.13;5016368;28;20224;-68
2021/10/14 07:12:40;;;;;;;8.80;8.10;;;;;;;4.67;95.42;96545.34;5021339;28;20487;-68
2021/10/14 07:15:09;;;;;;;9.97;8.33;;;;;;;4.73;95.33;96555.28;5021007;28;20309;-67
2021/10/14 07:17:37;;;;;;;8.40;7.70;;;;;;;4.74;95.84;96558.72;5025046;28;20640;-68
2021/10/14 07:20:07;;;;;;;10.23;8.67;;;;;;;4.76;95.59;96560.28;5024752;28;20248;-68
2021/10/14 07:22:36;;;;;;;8.30;6.93;;;;;;;4.84;95.60;96564.84;5019110;28;20232;-68
2021/10/14 07:25:05;;;;;;;8.57;7.70;;;;;;;4.92;95.29;96564.22;5023628;28;20225;-68
2021/10/14 07:27:33;;;;;;;8.30;7.60;;;;;;;4.97;95.26;96567.31;5023890;28;20238;-68
2021/10/14 07:30:07;;;;;;;7.10;6.50;;;;;;;5.12;95.13;96563.38;5024073;28;20400;-68
2021/10/14 07:32:35;;;;;;;6.73;6.13;;;;;;;5.21;94.97;96560.03;5023805;28;20244;-68
2021/10/14 07:35:05;;;;;;;8.60;7.23;;;;;;;5.31;94.67;96571.38;5023975;28;20658;-68
2021/10/14 07:37:33;;;;;;;7.57;6.97;;;;;;;5.45;94.10;96564.16;5018116;28;20229;-68
2021/10/14 07:40:03;;;;;;;7.87;7.17;;;;;;;5.55;93.70;96572.88;5023153;28;20235;-68
2021/10/14 07:42:34;;;;;;;6.53;6.00;;;;;;;5.63;93.28;96565.19;5008915;28;20673;-68
2021/10/14 07:45:02;;;;;;;8.03;7.33;;;;;;;5.69;93.39;96569.91;5023028;28;20780;-68
2021/10/14 07:47:30;;;;;;;9.60;8.77;;;;;;;5.78;93.17;96571.75;5022283;28;20231;-67
2021/10/14 07:49:58;;;;;;;8.03;7.33;;;;;;;5.89;93.67;96570.81;5023435;28;20302;-68
2021/10/14 07:52:27;;;;;;;6.27;5.67;;;;;;;6.04;93.38;96574.78;5022134;28;20224;-68
2021/10/14 07:54:55;;;;;;;12.97;9.13;;;;;;;6.12;93.13;96567.06;5024054;28;20455;-68
2021/10/14 07:57:24;;;;;;;7.43;6.87;;;;;;;6.19;92.77;96572.59;5038316;28;20233;-67
2021/10/14 07:59:53;;;;;;;9.70;8.80;;;;;;;6.30;92.78;96569.03;5020850;28;20244;-67
2021/10/14 08:02:21;;;;;;;8.47;7.67;;;;;;;6.43;92.25;96570.44;5031607;28;20262;-68
2021/10/14 08:04:52;;;;;;;8.90;8.20;;;;;;;6.59;92.20;96564.69;5011706;28;20574;-68
2021/10/14 08:07:22;;;;;;;6.23;5.73;;;;;;;6.69;91.28;96572.53;5015182;28;20586;-69
2021/10/14 08:09:50;;;;;;;9.47;6.30;;;;;;;6.75;90.99;96569.34;5024381;28;20625;-68
2021/10/14 08:12:18;;;;;;;7.33;6.70;;;;;;;6.75;90.58;96571.97;5019153;28;20219;-68
2021/10/14 08:14:48;;;;;;;8.67;7.97;;;;;;;6.83;90.61;96572.13;5020235;28;20254;-68
2021/10/14 08:17:16;;;;;;;12.00;9.10;;;;;;;6.97;90.64;96568.25;5023311;28;20223;-68
2021/10/14 08:19:44;;;;;;;7.20;6.57;;;;;;;7.12;90.07;96569.47;5024269;28;20744;-67
2021/10/14 08:22:13;;;;;;;6.50;5.80;;;;;;;7.20;90.22;96574.03;5020385;28;20215;-68
2021/10/14 08:24:40;;;;;;;5.03;4.73;;;;;;;7.30;89.14;96572.22;5027117;28;20277;-69
2021/10/14 08:27:08;;;;;;;5.07;4.67;;;;;;;7.37;88.59;96575.94;5024064;28;20262;-67
2021/10/14 08:29:37;;;;;;;5.10;4.70;;;;;;;7.43;88.04;96580.63;5026847;28;20292;-68
2021/10/14 08:32:07;;;;;;;6.60;6.10;;;;;;;7.42;89.12;96584.22;5025461;28;20255;-67
2021/10/14 08:34:36;;;;;;;6.10;5.60;;;;;;;7.41;89.00;96578.16;5025606;28;20236;-69
2021/10/14 08:37:04;;;;;;;4.30;3.97;;;;;;;7.55;89.41;96568.16;5020094;28;20804;-68
2021/10/14 08:39:33;;;;;;;4.00;3.77;;;;;;;7.56;88.12;96562.75;5041393;28;20217;-68
2021/10/14 08:42:01;;;;;;;6.03;5.23;;;;;;;7.70;88.49;96561.47;5027006;28;20307;-67
2021/10/14 08:44:30;;;;;;;5.17;4.77;;;;;;;7.59;87.18;96562.47;5025078;28;20265;-67
2021/10/14 08:46:59;;;;;;;4.10;3.80;;;;;;;7.76;86.03;96560.06;5026588;28;20277;-69
2021/10/14 08:49:30;;;;;;;4.73;4.33;;;;;;;7.79;86.68;96562.41;5026980;28;20228;-67
2021/10/14 08:51:58;;;;;;;5.33;4.93;;;;;;;7.81;85.90;96557.84;5025637;28;20244;-68
2021/10/14 08:54:26;;;;;;;5.83;5.33;;;;;;;7.68;85.19;96561.63;5027253;28;20240;-68
2021/10/14 08:56:54;;;;;;;4.97;4.67;;;;;;;7.83;85.79;96564.59;5027277;28;20285;-68
2021/10/14 08:59:22;;;;;;;5.20;4.80;;;;;;;8.02;86.27;96561.06;5026712;28;20220;-68
2021/10/14 09:02:14;;;;;;;6.67;5.97;;;;;;;8.14;86.24;96559.91;5026600;28;20257;-69
2021/10/14 09:04:57;;;;;;;4.93;4.50;;;;;;;8.28;83.79;96562.03;5025339;28;20268;-69
2021/10/14 09:07:27;;;;;;;6.67;6.13;;;;;;;8.47;83.91;96562.91;5025255;28;20396;-69
2021/10/14 09:09:58;;;;;;;4.57;4.27;;;;;;;8.53;81.83;96555.25;5042483;28;20222;-69
2021/10/14 09:12:34;;;;;;;4.20;3.90;;;;;;;8.80;83.10;96557.00;5024103;28;20212;-69
2021/10/14 09:15:05;;;;;;;4.47;4.17;;;;;;;8.94;83.02;96557.44;5026177;28;20281;-69
2021/10/14 09:17:53;;;;;;;3.63;3.33;;;;;;;8.98;82.11;96545.63;5026017;28;20297;-69
2021/10/14 09:20:40;;;;;;;5.83;4.90;;;;;;;8.99;81.15;96542.03;5023871;28;20326;-69
2021/10/14 09:23:12;;;;;;;4.53;4.23;;;;;;;8.85;80.49;96543.38;5027067;28;20228;-69
2021/10/14 09:25:42;;;;;;;4.10;3.77;;;;;;;8.77;81.35;96543.28;5025575;28;20336;-69
2021/10/14 09:28:13;;;;;;;6.13;4.80;;;;;;;8.77;80.19;96536.22;5035992;28;20249;-69
2021/10/14 09:30:54;;;;;;;4.30;4.00;;;;;;;9.16;79.98;96541.16;5026379;28;20246;-69
2021/10/14 09:33:35;;;;;;;4.27;3.97;;;;;;;9.31;79.66;96538.78;5024157;28;20225;-69
2021/10/14 09:36:33;;;;;;;4.93;4.63;;;;;;;9.45;78.94;96540.88;5022356;28;21089;-69
2021/10/14 09:39:06;;;;;;;2.87;2.67;;;;;;;9.53;77.42;96542.72;4991856;28;20226;-69
2021/10/14 09:41:39;;;;;;;3.97;3.67;;;;;;;9.43;78.97;96542.00;5026427;28;20265;-69
2021/10/14 09:44:12;;;;;;;3.83;3.53;;;;;;;9.69;78.65;96540.16;5020374;28;20309;-69
2021/10/14 09:46:42;;;;;;;3.20;3.00;;;;;;;9.61;77.96;96545.41;5024728;28;20255;-69
2021/10/14 09:49:13;;;;;;;4.23;3.93;;;;;;;9.43;78.30;96542.84;5024863;28;20596;-69
2021/10/14 09:51:45;;;;;;;4.80;3.97;;;;;;;9.20;77.01;96542.50;5024547;28;20384;-69
2021/10/14 09:54:14;;;;;;;4.23;3.93;;;;;;;9.51;79.37;96535.00;5025954;28;20300;-69
2021/10/14 09:56:42;;;;;;;4.10;3.73;;;;;;;9.76;79.29;96543.84;5025066;28;20725;-69
2021/10/14 09:59:10;;;;;;;3.73;3.33;;;;;;;10.00;79.00;96537.03;5019471;28;20961;-68
2021/10/14 10:01:39;;;;;;;3.40;3.10;;;;;;;10.16;76.19;96535.28;5025431;28;20282;-69
2021/10/14 10:04:09;;;;;;;4.87;4.37;;;;;;;10.13;76.49;96529.50;5026515;28;20663;-69
2021/10/14 10:06:39;;;;;;;5.10;3.70;;;;;;;10.71;75.32;96531.34;5024845;28;20289;-69
2021/10/14 10:09:32;;;;;;;5.23;3.77;;;;;;;10.91;74.40;96529.19;5025123;28;20220;-69
2021/10/14 10:12:02;;;;;;;3.40;3.10;;;;;;;11.11;74.38;96528.69;5020032;28;20231;-69
2021/10/14 10:14:30;;;;;;;5.90;3.77;;;;;;;11.30;73.67;96529.34;5022457;28;20250;-69
2021/10/14 10:17:02;;;;;;;3.90;3.17;;;;;;;11.72;70.06;96523.81;5023653;28;20224;-69
2021/10/14 10:19:43;;;;;;;4.47;3.70;;;;;;;12.28;71.40;96519.34;5023295;28;20683;-69
2021/10/14 10:22:12;;;;;;;2.93;2.63;;;;;;;12.78;69.97;96516.19;5024330;28;20246;-69
2021/10/14 10:24:42;;;;;;;2.50;2.30;;;;;;;12.88;68.98;96515.16;5024582;28;20248;-69
2021/10/14 10:27:10;;;;;;;4.93;2.73;;;;;;;12.93;69.29;96507.50;5025762;28;20226;-69
2021/10/14 10:29:47;;;;;;;5.30;2.73;;;;;;;12.55;68.38;96511.91;5024276;28;20698;-69
2021/10/14 10:32:20;;;;;;;3.20;2.93;;;;;;;12.15;70.37;96513.75;5024526;28;20709;-69
2021/10/14 10:37:37;;;;;;;5.83;3.63;;;;;;;11.65;69.57;96517.56;5020045;28;20250;-69
2021/10/14 10:40:13;;;;;;;2.37;2.20;;;;;;;11.75;69.33;96506.78;5022757;28;20217;-69
2021/10/14 10:42:44;;;;;;;3.87;2.73;;;;;;;11.66;71.85;96506.81;5025008;28;20232;-69
2021/10/14 10:45:17;;;;;;;1.73;1.63;;;;;;;12.06;70.82;96502.38;5024677;28;20738;-70
2021/10/14 10:47:56;;;;;;;1.67;1.57;;;;;;;11.67;70.35;96499.69;5023719;28;20226;-69
2021/10/14 10:50:42;;;;;;;3.27;2.80;;;;;;;11.77;70.32;96491.56;5024177;28;20599;-69
2021/10/14 10:53:12;;;;;;;2.10;2.00;;;;;;;11.85;68.19;96496.88;5024411;28;20282;-69
2021/10/14 10:55:44;;;;;;;2.73;2.53;;;;;;;11.66;68.86;96493.59;5024891;28;20250;-69
2021/10/14 10:58:14;;;;;;;2.37;2.27;;;;;;;11.81;71.05;96492.94;5023102;28;20224;-69
2021/10/14 11:00:44;;;;;;;2.53;1.70;;;;;;;11.86;71.76;96487.94;5023913;28;20311;-70
2021/10/14 11:03:18;;;;;;;3.03;2.83;;;;;;;12.17;68.75;96486.16;5024627;28;20730;-69
2021/10/14 11:05:51;;;;;;;4.60;2.50;;;;;;;12.23;68.14;96479.31;5021264;28;20778;-70
2021/10/14 11:08:22;;;;;;;4.23;2.20;;;;;;;11.93;66.12;96483.63;5024608;28;20228;-69
2021/10/14 11:10:54;;;;;;;1.63;1.53;;;;;;;12.66;64.77;96474.44;5021276;28;20576;-69
2021/10/14 11:13:24;;;;;;;1.83;1.70;;;;;;;12.72;66.47;96469.25;5017948;28;20231;-69
2021/10/14 11:16:02;;;;;;;1.70;1.60;;;;;;;13.16;64.86;96465.88;5021957;28;20253;-69
2021/10/14 11:18:31;;;;;;;2.97;1.87;;;;;;;13.12;64.27;96461.13;5013651;28;20931;-69
2021/10/14 11:21:01;;;;;;;1.50;1.33;;;;;;;12.80;64.56;96455.97;5020810;28;20259;-69
2021/10/14 11:23:31;;;;;;;1.53;1.30;;;;;;;12.91;64.54;96451.22;5022537;28;20714;-69
2021/10/14 11:26:12;;;;;;;1.90;1.80;;;;;;;13.05;64.56;96453.06;5022907;28;20285;-69
2021/10/14 11:28:56;;;;;;;1.40;1.23;;;;;;;13.21;64.40;96447.66;5024242;28;20234;-69
2021/10/14 11:31:28;;;;;;;1.47;1.37;;;;;;;13.44;64.94;96442.31;5023811;28;20253;-69
2021/10/14 11:34:05;;;;;;;1.63;1.53;;;;;;;13.34;63.54;96431.94;5023583;28;20246;-69
2021/10/14 11:36:34;;;;;;;3.13;1.43;;;;;;;12.96;65.70;96438.25;5022347;28;20256;-69
2021/10/14 11:39:05;;;;;;;2.03;1.83;;;;;;;12.86;64.45;96442.97;5021561;28;20249;-69
2021/10/14 11:41:35;;;;;;;1.63;1.53;;;;;;;13.15;65.51;96434.25;5017251;28;20338;-69
2021/10/14 11:44:06;;;;;;;1.73;1.63;;;;;;;13.25;65.97;96435.69;5024739;28;20253;-70
2021/10/14 11:46:36;;;;;;;1.63;1.53;;;;;;;13.56;66.55;96435.53;5015799;28;20312;-69
2021/10/14 11:49:05;;;;;;;1.80;1.37;;;;;;;13.23;64.08;96435.03;5023749;28;20334;-69
2021/10/14 11:51:34;;;;;;;3.00;2.43;;;;;;;12.92;64.00;96426.38;5023116;28;20621;-69